sensor_id;sensor_type;location;lat;lon;timestamp;pressure;altitude;pressure_sealevel;temperature;humidity
43707;BME280;61348;53.392;-6.248;2023-03-15T00:01:59;100675.06;;;1.68;83.81
43707;BME280;61348;53.392;-6.248;2023-03-15T00:04:27;100682.97;;;1.69;83.78
43707;BME280;61348;53.392;-6.248;2023-03-15T00:06:54;100693.88;;;1.69;83.47
43707;BME280;61348;53.392;-6.248;2023-03-15T00:09:21;100706.16;;;1.67;83.48
43707;BME280;61348;53.392;-6.248;2023-03-15T00:11:47;100708.91;;;1.67;83.49
43707;BME280;61348;53.392;-6.248;2023-03-15T00:14:14;100710.53;;;1.68;83.44
43707;BME280;61348;53.392;-6.248;2023-03-15T00:16:41;100716.00;;;1.68;83.69
43707;BME280;61348;53.392;-6.248;2023-03-15T00:19:09;100709.72;;;1.67;83.59
43707;BME280;61348;53.392;-6.248;2023-03-15T00:21:37;100712.44;;;1.67;83.81
43707;BME280;61348;53.392;-6.248;2023-03-15T00:24:05;100717.38;;;1.65;83.83
43707;BME280;61348;53.392;-6.248;2023-03-15T00:26:32;100714.66;;;1.65;83.48
43707;BME280;61348;53.392;-6.248;2023-03-15T00:28:59;100713.84;;;1.65;83.72
43707;BME280;61348;53.392;-6.248;2023-03-15T00:31:26;100707.56;;;1.64;83.77
43707;BME280;61348;53.392;-6.248;2023-03-15T00:33:56;100707.03;;;1.62;83.46
43707;BME280;61348;53.392;-6.248;2023-03-15T00:36:23;100696.94;;;1.63;83.79
43707;BME280;61348;53.392;-6.248;2023-03-15T00:38:52;100698.34;;;1.60;83.53
43707;BME280;61348;53.392;-6.248;2023-03-15T00:41:20;100693.44;;;1.57;83.50
43707;BME280;61348;53.392;-6.248;2023-03-15T00:43:48;100685.31;;;1.52;83.84
43707;BME280;61348;53.392;-6.248;2023-03-15T00:46:16;100684.50;;;1.52;83.97
43707;BME280;61348;53.392;-6.248;2023-03-15T00:48:46;100686.69;;;1.50;83.72
43707;BME280;61348;53.392;-6.248;2023-03-15T00:51:16;100688.09;;;1.47;83.64
43707;BME280;61348;53.392;-6.248;2023-03-15T00:53:44;100690.81;;;1.47;84.15
43707;BME280;61348;53.392;-6.248;2023-03-15T00:56:13;100691.38;;;1.44;84.23
43707;BME280;61348;53.392;-6.248;2023-03-15T00:58:41;100687.56;;;1.45;84.22
43707;BME280;61348;53.392;-6.248;2023-03-15T01:01:13;100691.06;;;1.46;84.48
43707;BME280;61348;53.392;-6.248;2023-03-15T01:03:41;100693.00;;;1.45;84.11
43707;BME280;61348;53.392;-6.248;2023-03-15T01:06:10;100698.47;;;1.45;84.20
43707;BME280;61348;53.392;-6.248;2023-03-15T01:08:37;100697.41;;;1.41;83.79
43707;BME280;61348;53.392;-6.248;2023-03-15T01:11:07;100689.78;;;1.38;84.16
43707;BME280;61348;53.392;-6.248;2023-03-15T01:13:34;100703.75;;;1.32;83.97
43707;BME280;61348;53.392;-6.248;2023-03-15T01:16:02;100702.41;;;1.29;84.39
43707;BME280;61348;53.392;-6.248;2023-03-15T01:18:29;100709.53;;;1.25;84.46
43707;BME280;61348;53.392;-6.248;2023-03-15T01:20:56;100704.13;;;1.20;84.66
43707;BME280;61348;53.392;-6.248;2023-03-15T01:23:23;100705.78;;;1.16;84.71
43707;BME280;61348;53.392;-6.248;2023-03-15T01:25:50;100706.38;;;1.13;85.15
43707;BME280;61348;53.392;-6.248;2023-03-15T01:28:17;100697.66;;;1.11;85.34
43707;BME280;61348;53.392;-6.248;2023-03-15T01:30:51;100688.94;;;1.09;85.23
43707;BME280;61348;53.392;-6.248;2023-03-15T01:33:19;100689.75;;;1.09;85.33
43707;BME280;61348;53.392;-6.248;2023-03-15T01:35:46;100694.63;;;1.12;85.63
43707;BME280;61348;53.392;-6.248;2023-03-15T01:38:13;100685.38;;;1.13;85.53
43707;BME280;61348;53.392;-6.248;2023-03-15T01:40:44;100694.13;;;1.10;85.54
43707;BME280;61348;53.392;-6.248;2023-03-15T01:48:37;100687.84;;;1.10;85.93
43707;BME280;61348;53.392;-6.248;2023-03-15T01:53:44;100694.41;;;1.04;85.62
43707;BME280;61348;53.392;-6.248;2023-03-15T01:56:13;100695.75;;;1.06;85.57
43707;BME280;61348;53.392;-6.248;2023-03-15T01:58:42;100699.03;;;1.08;85.47
43707;BME280;61348;53.392;-6.248;2023-03-15T02:01:11;100700.16;;;1.02;85.73
43707;BME280;61348;53.392;-6.248;2023-03-15T02:03:42;100707.56;;;0.97;85.87
43707;BME280;61348;53.392;-6.248;2023-03-15T02:06:17;100715.78;;;0.92;85.99
43707;BME280;61348;53.392;-6.248;2023-03-15T02:08:49;100710.88;;;0.89;86.25
43707;BME280;61348;53.392;-6.248;2023-03-15T02:11:19;100706.81;;;0.86;86.22
43707;BME280;61348;53.392;-6.248;2023-03-15T02:13:48;100698.94;;;0.85;86.41
43707;BME280;61348;53.392;-6.248;2023-03-15T02:16:15;100698.09;;;0.84;86.61
43707;BME280;61348;53.392;-6.248;2023-03-15T02:18:43;100691.03;;;0.83;86.47
43707;BME280;61348;53.392;-6.248;2023-03-15T02:26:40;100693.47;;;0.85;86.99
43707;BME280;61348;53.392;-6.248;2023-03-15T02:29:08;100697.81;;;0.86;87.13
43707;BME280;61348;53.392;-6.248;2023-03-15T02:31:36;100689.13;;;0.84;86.69
43707;BME280;61348;53.392;-6.248;2023-03-15T02:34:05;100692.88;;;0.88;86.96
43707;BME280;61348;53.392;-6.248;2023-03-15T02:36:34;100691.81;;;0.89;86.96
43707;BME280;61348;53.392;-6.248;2023-03-15T02:39:15;100673.25;;;0.91;86.83
43707;BME280;61348;53.392;-6.248;2023-03-15T02:41:45;100669.44;;;0.92;86.91
43707;BME280;61348;53.392;-6.248;2023-03-15T02:44:34;100659.59;;;0.96;87.14
43707;BME280;61348;53.392;-6.248;2023-03-15T02:47:06;100660.13;;;0.98;87.18
43707;BME280;61348;53.392;-6.248;2023-03-15T02:49:40;100650.84;;;0.99;86.81
43707;BME280;61348;53.392;-6.248;2023-03-15T02:52:08;100645.41;;;0.99;87.01
43707;BME280;61348;53.392;-6.248;2023-03-15T02:54:35;100650.28;;;1.02;87.45
43707;BME280;61348;53.392;-6.248;2023-03-15T02:57:04;100649.47;;;1.01;87.49
43707;BME280;61348;53.392;-6.248;2023-03-15T02:59:31;100647.56;;;1.02;87.25
43707;BME280;61348;53.392;-6.248;2023-03-15T03:01:58;100642.91;;;1.02;87.29
43707;BME280;61348;53.392;-6.248;2023-03-15T03:04:25;100633.63;;;1.03;87.57
43707;BME280;61348;53.392;-6.248;2023-03-15T03:06:52;100628.72;;;1.05;87.63
43707;BME280;61348;53.392;-6.248;2023-03-15T03:09:18;100628.72;;;1.05;87.56
43707;BME280;61348;53.392;-6.248;2023-03-15T03:11:45;100629.25;;;1.07;87.90
43707;BME280;61348;53.392;-6.248;2023-03-15T03:14:14;100625.13;;;1.10;88.17
43707;BME280;61348;53.392;-6.248;2023-03-15T03:16:41;100630.59;;;1.10;87.86
43707;BME280;61348;53.392;-6.248;2023-03-15T03:19:09;100624.56;;;1.13;87.94
43707;BME280;61348;53.392;-6.248;2023-03-15T03:21:37;100622.38;;;1.15;88.15
43707;BME280;61348;53.392;-6.248;2023-03-15T03:24:05;100619.88;;;1.18;88.15
43707;BME280;61348;53.392;-6.248;2023-03-15T03:26:31;100615.78;;;1.21;88.11
43707;BME280;61348;53.392;-6.248;2023-03-15T03:28:58;100612.75;;;1.22;88.18
43707;BME280;61348;53.392;-6.248;2023-03-15T03:31:26;100612.47;;;1.24;88.14
43707;BME280;61348;53.392;-6.248;2023-03-15T03:33:56;100587.13;;;1.23;87.99
43707;BME280;61348;53.392;-6.248;2023-03-15T03:36:22;100595.00;;;1.25;88.15
43707;BME280;61348;53.392;-6.248;2023-03-15T03:38:50;100590.94;;;1.22;88.45
43707;BME280;61348;53.392;-6.248;2023-03-15T03:41:18;100586.31;;;1.23;88.00
43707;BME280;61348;53.392;-6.248;2023-03-15T03:43:46;100591.75;;;1.23;88.47
43707;BME280;61348;53.392;-6.248;2023-03-15T03:46:12;100596.63;;;1.26;88.20
43707;BME280;61348;53.392;-6.248;2023-03-15T03:48:39;100596.91;;;1.24;88.66
43707;BME280;61348;53.392;-6.248;2023-03-15T03:51:06;100599.38;;;1.26;88.61
43707;BME280;61348;53.392;-6.248;2023-03-15T03:53:32;100602.09;;;1.26;88.47
43707;BME280;61348;53.392;-6.248;2023-03-15T03:55:59;100599.38;;;1.26;88.54
43707;BME280;61348;53.392;-6.248;2023-03-15T03:58:29;100596.63;;;1.26;88.52
43707;BME280;61348;53.392;-6.248;2023-03-15T04:00:56;100587.88;;;1.29;88.84
43707;BME280;61348;53.392;-6.248;2023-03-15T04:03:23;100586.50;;;1.32;88.79
43707;BME280;61348;53.392;-6.248;2023-03-15T04:05:53;100583.78;;;1.32;88.92
43707;BME280;61348;53.392;-6.248;2023-03-15T04:08:22;100575.84;;;1.30;88.91
43707;BME280;61348;53.392;-6.248;2023-03-15T04:10:53;100579.72;;;1.29;89.20
43707;BME280;61348;53.392;-6.248;2023-03-15T04:13:24;100576.16;;;1.29;88.83
43707;BME280;61348;53.392;-6.248;2023-03-15T04:15:50;100591.44;;;1.30;89.04
43707;BME280;61348;53.392;-6.248;2023-03-15T04:18:17;100587.06;;;1.29;89.19
43707;BME280;61348;53.392;-6.248;2023-03-15T04:20:46;100576.47;;;1.27;89.14
43707;BME280;61348;53.392;-6.248;2023-03-15T04:23:13;100583.53;;;1.28;89.10
43707;BME280;61348;53.392;-6.248;2023-03-15T04:25:41;100581.31;;;1.30;89.52
43707;BME280;61348;53.392;-6.248;2023-03-15T04:28:08;100581.56;;;1.34;89.54
43707;BME280;61348;53.392;-6.248;2023-03-15T04:30:38;100584.81;;;1.36;89.35
43707;BME280;61348;53.392;-6.248;2023-03-15T04:33:04;100578.25;;;1.37;89.41
43707;BME280;61348;53.392;-6.248;2023-03-15T04:35:33;100573.06;;;1.35;89.23
43707;BME280;61348;53.392;-6.248;2023-03-15T04:38:00;100575.22;;;1.38;89.39
43707;BME280;61348;53.392;-6.248;2023-03-15T04:40:27;100585.06;;;1.39;89.67
43707;BME280;61348;53.392;-6.248;2023-03-15T04:42:54;100587.78;;;1.39;89.47
43707;BME280;61348;53.392;-6.248;2023-03-15T04:45:25;100586.69;;;1.40;89.75
43707;BME280;61348;53.392;-6.248;2023-03-15T04:47:52;100585.31;;;1.43;89.59
43707;BME280;61348;53.392;-6.248;2023-03-15T04:50:20;100590.97;;;1.46;89.48
43707;BME280;61348;53.392;-6.248;2023-03-15T04:52:47;100588.78;;;1.48;89.42
43707;BME280;61348;53.392;-6.248;2023-03-15T04:55:14;100589.31;;;1.50;89.61
43707;BME280;61348;53.392;-6.248;2023-03-15T04:57:41;100577.88;;;1.48;89.80
43707;BME280;61348;53.392;-6.248;2023-03-15T05:00:09;100576.47;;;1.51;89.69
43707;BME280;61348;53.392;-6.248;2023-03-15T05:02:39;100580.31;;;1.50;89.82
43707;BME280;61348;53.392;-6.248;2023-03-15T05:05:08;100578.97;;;1.47;89.78
43707;BME280;61348;53.392;-6.248;2023-03-15T05:07:36;100578.97;;;1.47;89.74
43707;BME280;61348;53.392;-6.248;2023-03-15T05:10:04;100582.50;;;1.48;89.79
43707;BME280;61348;53.392;-6.248;2023-03-15T05:12:31;100570.78;;;1.47;90.14
43707;BME280;61348;53.392;-6.248;2023-03-15T05:14:59;100576.25;;;1.47;90.27
43707;BME280;61348;53.392;-6.248;2023-03-15T05:17:26;100568.88;;;1.48;90.06
43707;BME280;61348;53.392;-6.248;2023-03-15T05:19:53;100572.94;;;1.50;89.82
43707;BME280;61348;53.392;-6.248;2023-03-15T05:22:20;100578.91;;;1.52;90.23
43707;BME280;61348;53.392;-6.248;2023-03-15T05:24:51;100575.88;;;1.54;90.12
43707;BME280;61348;53.392;-6.248;2023-03-15T05:27:19;100577.28;;;1.51;90.38
43707;BME280;61348;53.392;-6.248;2023-03-15T05:29:46;100582.47;;;1.53;90.06
43707;BME280;61348;53.392;-6.248;2023-03-15T05:32:13;100577.81;;;1.53;90.32
43707;BME280;61348;53.392;-6.248;2023-03-15T05:34:39;100568.00;;;1.52;90.35
43707;BME280;61348;53.392;-6.248;2023-03-15T05:37:08;100567.19;;;1.52;90.52
43707;BME280;61348;53.392;-6.248;2023-03-15T05:39:35;100571.25;;;1.54;90.56
43707;BME280;61348;53.392;-6.248;2023-03-15T05:42:01;100572.06;;;1.55;90.63
43707;BME280;61348;53.392;-6.248;2023-03-15T05:44:28;100575.84;;;1.59;90.29
43707;BME280;61348;53.392;-6.248;2023-03-15T05:46:55;100572.81;;;1.60;90.44
43707;BME280;61348;53.392;-6.248;2023-03-15T05:49:21;100567.06;;;1.62;90.67
43707;BME280;61348;53.392;-6.248;2023-03-15T05:51:48;100568.41;;;1.64;90.32
43707;BME280;61348;53.392;-6.248;2023-03-15T05:54:15;100555.56;;;1.65;90.16
43707;BME280;61348;53.392;-6.248;2023-03-15T05:56:41;100564.28;;;1.67;90.20
43707;BME280;61348;53.392;-6.248;2023-03-15T05:59:08;100565.09;;;1.67;90.53
43707;BME280;61348;53.392;-6.248;2023-03-15T06:01:35;100568.38;;;1.69;90.40
43707;BME280;61348;53.392;-6.248;2023-03-15T06:04:01;100556.84;;;1.72;90.35
43707;BME280;61348;53.392;-6.248;2023-03-15T06:06:28;100545.66;;;1.74;90.57
43707;BME280;61348;53.392;-6.248;2023-03-15T06:08:58;100543.75;;;1.74;90.09
43707;BME280;61348;53.392;-6.248;2023-03-15T06:11:25;100553.53;;;1.75;90.39
43707;BME280;61348;53.392;-6.248;2023-03-15T06:13:51;100533.84;;;1.78;90.46
43707;BME280;61348;53.392;-6.248;2023-03-15T06:16:18;100530.03;;;1.79;89.98
43707;BME280;61348;53.392;-6.248;2023-03-15T06:18:45;100527.81;;;1.81;90.18
43707;BME280;61348;53.392;-6.248;2023-03-15T06:21:12;100529.16;;;1.84;90.01
43707;BME280;61348;53.392;-6.248;2023-03-15T06:23:39;100530.47;;;1.87;90.07
43707;BME280;61348;53.392;-6.248;2023-03-15T06:26:06;100518.47;;;1.88;90.20
43707;BME280;61348;53.392;-6.248;2023-03-15T06:28:33;100522.22;;;1.92;89.82
43707;BME280;61348;53.392;-6.248;2023-03-15T06:31:07;100514.53;;;1.94;89.78
43707;BME280;61348;53.392;-6.248;2023-03-15T06:33:34;100519.41;;;1.97;90.05
43707;BME280;61348;53.392;-6.248;2023-03-15T06:36:01;100508.72;;;2.00;89.79
43707;BME280;61348;53.392;-6.248;2023-03-15T06:38:28;100504.91;;;2.01;89.81
43707;BME280;61348;53.392;-6.248;2023-03-15T06:40:57;100507.84;;;2.05;89.43
43707;BME280;61348;53.392;-6.248;2023-03-15T06:43:27;100496.63;;;2.06;89.82
43707;BME280;61348;53.392;-6.248;2023-03-15T06:45:54;100503.44;;;2.09;89.83
43707;BME280;61348;53.392;-6.248;2023-03-15T06:48:22;100499.56;;;2.10;89.64
43707;BME280;61348;53.392;-6.248;2023-03-15T06:50:48;100500.09;;;2.12;89.42
43707;BME280;61348;53.392;-6.248;2023-03-15T06:53:15;100502.53;;;2.13;89.44
43707;BME280;61348;53.392;-6.248;2023-03-15T06:55:43;100492.44;;;2.14;89.37
43707;BME280;61348;53.392;-6.248;2023-03-15T06:58:10;100505.19;;;2.18;89.33
43707;BME280;61348;53.392;-6.248;2023-03-15T07:00:37;100501.06;;;2.21;89.20
43707;BME280;61348;53.392;-6.248;2023-03-15T07:03:04;100490.63;;;2.23;89.64
43707;BME280;61348;53.392;-6.248;2023-03-15T07:05:31;100499.38;;;2.25;89.23
43707;BME280;61348;53.392;-6.248;2023-03-15T07:07:58;100490.03;;;2.26;89.33
43707;BME280;61348;53.392;-6.248;2023-03-15T07:10:24;100489.78;;;2.27;89.10
43707;BME280;61348;53.392;-6.248;2023-03-15T07:12:51;100481.78;;;2.31;89.45
43707;BME280;61348;53.392;-6.248;2023-03-15T07:15:18;100478.75;;;2.32;89.42
43707;BME280;61348;53.392;-6.248;2023-03-15T07:17:45;100480.09;;;2.35;89.57
43707;BME280;61348;53.392;-6.248;2023-03-15T07:20:11;100471.31;;;2.38;89.11
43707;BME280;61348;53.392;-6.248;2023-03-15T07:22:38;100475.88;;;2.42;88.93
43707;BME280;61348;53.392;-6.248;2023-03-15T07:25:05;100465.94;;;2.46;89.24
43707;BME280;61348;53.392;-6.248;2023-03-15T07:27:32;100461.22;;;2.52;89.20
43707;BME280;61348;53.392;-6.248;2023-03-15T07:29:59;100461.13;;;2.57;89.28
43707;BME280;61348;53.392;-6.248;2023-03-15T07:32:26;100446.88;;;2.60;88.88
43707;BME280;61348;53.392;-6.248;2023-03-15T07:34:53;100455.78;;;2.66;89.15
43707;BME280;61348;53.392;-6.248;2023-03-15T07:37:23;100463.41;;;2.69;89.16
43707;BME280;61348;53.392;-6.248;2023-03-15T07:39:50;100460.56;;;2.74;88.92
43707;BME280;61348;53.392;-6.248;2023-03-15T07:42:17;100462.72;;;2.77;88.82
43707;BME280;61348;53.392;-6.248;2023-03-15T07:44:44;100463.72;;;2.81;88.78
43707;BME280;61348;53.392;-6.248;2023-03-15T07:47:10;100466.38;;;2.86;89.19
43707;BME280;61348;53.392;-6.248;2023-03-15T07:49:37;100460.00;;;2.90;88.84
43707;BME280;61348;53.392;-6.248;2023-03-15T07:52:04;100464.88;;;2.93;89.34
43707;BME280;61348;53.392;-6.248;2023-03-15T07:54:31;100461.53;;;2.96;89.29
43707;BME280;61348;53.392;-6.248;2023-03-15T07:56:59;100463.16;;;2.97;88.95
43707;BME280;61348;53.392;-6.248;2023-03-15T07:59:26;100465.59;;;2.99;89.27
43707;BME280;61348;53.392;-6.248;2023-03-15T08:01:53;100459.81;;;3.00;89.50
43707;BME280;61348;53.392;-6.248;2023-03-15T08:04:20;100463.88;;;3.03;89.28
43707;BME280;61348;53.392;-6.248;2023-03-15T08:06:46;100462.94;;;3.07;89.46
43707;BME280;61348;53.392;-6.248;2023-03-15T08:09:13;100454.16;;;3.11;89.26
43707;BME280;61348;53.392;-6.248;2023-03-15T08:11:40;100450.81;;;3.14;89.85
43707;BME280;61348;53.392;-6.248;2023-03-15T08:14:10;100449.72;;;3.15;89.78
43707;BME280;61348;53.392;-6.248;2023-03-15T08:16:36;100463.56;;;3.18;89.41
43707;BME280;61348;53.392;-6.248;2023-03-15T08:19:03;100466.03;;;3.20;89.62
43707;BME280;61348;53.392;-6.248;2023-03-15T08:21:30;100459.13;;;3.22;89.75
43707;BME280;61348;53.392;-6.248;2023-03-15T08:23:59;100458.81;;;3.24;89.98
43707;BME280;61348;53.392;-6.248;2023-03-15T08:26:26;100453.84;;;3.26;89.86
43707;BME280;61348;53.392;-6.248;2023-03-15T08:28:53;100453.25;;;3.29;90.11
43707;BME280;61348;53.392;-6.248;2023-03-15T08:31:19;100447.16;;;3.32;90.14
43707;BME280;61348;53.392;-6.248;2023-03-15T08:33:47;100448.78;;;3.33;90.35
43707;BME280;61348;53.392;-6.248;2023-03-15T08:36:14;100437.25;;;3.36;90.39
43707;BME280;61348;53.392;-6.248;2023-03-15T08:38:41;100440.47;;;3.38;90.48
43707;BME280;61348;53.392;-6.248;2023-03-15T08:41:07;100449.19;;;3.40;90.32
43707;BME280;61348;53.392;-6.248;2023-03-15T08:43:34;100445.84;;;3.43;90.40
43707;BME280;61348;53.392;-6.248;2023-03-15T08:46:00;100447.47;;;3.44;90.59
43707;BME280;61348;53.392;-6.248;2023-03-15T08:48:28;100445.75;;;3.48;91.03
43707;BME280;61348;53.392;-6.248;2023-03-15T08:50:56;100440.25;;;3.48;91.04
43707;BME280;61348;53.392;-6.248;2023-03-15T08:53:22;100438.84;;;3.50;90.81
43707;BME280;61348;53.392;-6.248;2023-03-15T08:55:50;100437.41;;;3.53;91.13
43707;BME280;61348;53.392;-6.248;2023-03-15T08:58:17;100439.06;;;3.54;91.03
43707;BME280;61348;53.392;-6.248;2023-03-15T09:00:43;100430.53;;;3.55;91.33
43707;BME280;61348;53.392;-6.248;2023-03-15T09:03:11;100425.88;;;3.56;91.25
43707;BME280;61348;53.392;-6.248;2023-03-15T09:05:38;100427.50;;;3.57;91.31
43707;BME280;61348;53.392;-6.248;2023-03-15T09:08:05;100440.56;;;3.60;91.72
43707;BME280;61348;53.392;-6.248;2023-03-15T09:10:32;100437.53;;;3.61;91.48
43707;BME280;61348;53.392;-6.248;2023-03-15T09:12:59;100411.47;;;3.64;92.02
43707;BME280;61348;53.392;-6.248;2023-03-15T09:15:27;100420.16;;;3.66;91.83
43707;BME280;61348;53.392;-6.248;2023-03-15T09:17:54;100412.16;;;3.69;91.90
43707;BME280;61348;53.392;-6.248;2023-03-15T09:20:22;100418.13;;;3.72;92.01
43707;BME280;61348;53.392;-6.248;2023-03-15T09:22:54;100413.97;;;3.74;92.01
43707;BME280;61348;53.392;-6.248;2023-03-15T09:25:22;100411.72;;;3.76;91.89
43707;BME280;61348;53.392;-6.248;2023-03-15T09:27:49;100413.84;;;3.79;92.35
43707;BME280;61348;53.392;-6.248;2023-03-15T09:30:17;100405.34;;;3.81;92.33
43707;BME280;61348;53.392;-6.248;2023-03-15T09:32:43;100406.16;;;3.81;92.53
43707;BME280;61348;53.392;-6.248;2023-03-15T09:35:14;100403.91;;;3.83;92.89
43707;BME280;61348;53.392;-6.248;2023-03-15T09:37:43;100414.25;;;3.86;92.68
43707;BME280;61348;53.392;-6.248;2023-03-15T09:40:21;100408.78;;;3.86;92.71
43707;BME280;61348;53.392;-6.248;2023-03-15T09:45:54;100402.47;;;3.86;93.32
43707;BME280;61348;53.392;-6.248;2023-03-15T09:51:09;100383.81;;;3.88;93.22
43707;BME280;61348;53.392;-6.248;2023-03-15T09:53:43;100380.56;;;3.86;93.60
43707;BME280;61348;53.392;-6.248;2023-03-15T09:56:26;100381.41;;;3.86;93.86
43707;BME280;61348;53.392;-6.248;2023-03-15T09:58:57;100375.91;;;3.86;93.59
43707;BME280;61348;53.392;-6.248;2023-03-15T10:01:30;100360.91;;;3.84;93.80
43707;BME280;61348;53.392;-6.248;2023-03-15T10:04:04;100368.00;;;3.85;94.19
43707;BME280;61348;53.392;-6.248;2023-03-15T10:06:36;100366.06;;;3.85;94.31
43707;BME280;61348;53.392;-6.248;2023-03-15T10:09:11;100357.03;;;3.85;94.42
43707;BME280;61348;53.392;-6.248;2023-03-15T10:20:24;100340.06;;;3.96;95.03
43707;BME280;61348;53.392;-6.248;2023-03-15T10:22:57;100344.31;;;4.02;95.04
43707;BME280;61348;53.392;-6.248;2023-03-15T10:25:27;100324.19;;;4.07;95.06
43707;BME280;61348;53.392;-6.248;2023-03-15T10:30:38;100312.66;;;4.18;95.28
43707;BME280;61348;53.392;-6.248;2023-03-15T10:35:35;100304.19;;;4.28;95.24
43707;BME280;61348;53.392;-6.248;2023-03-15T10:38:14;100307.91;;;4.32;95.62
43707;BME280;61348;53.392;-6.248;2023-03-15T10:40:52;100298.44;;;4.39;95.73
43707;BME280;61348;53.392;-6.248;2023-03-15T10:43:23;100302.16;;;4.43;95.68
43707;BME280;61348;53.392;-6.248;2023-03-15T10:48:31;100305.13;;;4.55;95.86
43707;BME280;61348;53.392;-6.248;2023-03-15T10:53:59;100282.91;;;4.65;96.34
43707;BME280;61348;53.392;-6.248;2023-03-15T10:56:30;100282.75;;;4.70;96.49
43707;BME280;61348;53.392;-6.248;2023-03-15T10:58:58;100274.72;;;4.73;96.33
43707;BME280;61348;53.392;-6.248;2023-03-15T11:01:38;100280.53;;;4.80;96.36
43707;BME280;61348;53.392;-6.248;2023-03-15T11:06:44;100262.47;;;4.88;96.45
43707;BME280;61348;53.392;-6.248;2023-03-15T11:09:17;100260.72;;;4.92;96.85
43707;BME280;61348;53.392;-6.248;2023-03-15T11:14:16;100242.19;;;4.98;96.99
43707;BME280;61348;53.392;-6.248;2023-03-15T11:16:50;100238.47;;;5.02;97.18
43707;BME280;61348;53.392;-6.248;2023-03-15T11:19:19;100233.94;;;5.06;97.33
43707;BME280;61348;53.392;-6.248;2023-03-15T11:21:49;100225.56;;;5.11;97.78
43707;BME280;61348;53.392;-6.248;2023-03-15T11:24:28;100233.66;;;5.16;97.65
43707;BME280;61348;53.392;-6.248;2023-03-15T11:27:01;100225.25;;;5.21;97.64
43707;BME280;61348;53.392;-6.248;2023-03-15T11:29:33;100213.63;;;5.24;97.93
43707;BME280;61348;53.392;-6.248;2023-03-15T11:32:06;100207.50;;;5.27;97.95
43707;BME280;61348;53.392;-6.248;2023-03-15T11:39:56;100197.81;;;5.38;98.69
43707;BME280;61348;53.392;-6.248;2023-03-15T11:42:43;100191.66;;;5.41;98.50
43707;BME280;61348;53.392;-6.248;2023-03-15T11:45:22;100184.06;;;5.47;98.67
43707;BME280;61348;53.392;-6.248;2023-03-15T11:47:55;100179.53;;;5.51;98.74
43707;BME280;61348;53.392;-6.248;2023-03-15T11:50:24;100170.34;;;5.56;98.71
43707;BME280;61348;53.392;-6.248;2023-03-15T11:52:51;100165.81;;;5.60;98.99
43707;BME280;61348;53.392;-6.248;2023-03-15T11:55:19;100169.53;;;5.64;99.03
43707;BME280;61348;53.392;-6.248;2023-03-15T11:57:48;100161.41;;;5.67;99.03
43707;BME280;61348;53.392;-6.248;2023-03-15T12:02:48;100160.78;;;5.70;99.41
43707;BME280;61348;53.392;-6.248;2023-03-15T12:05:47;100148.31;;;5.73;99.67
43707;BME280;61348;53.392;-6.248;2023-03-15T12:08:53;100146.06;;;5.75;99.74
43707;BME280;61348;53.392;-6.248;2023-03-15T12:16:25;100134.41;;;5.78;100.00
43707;BME280;61348;53.392;-6.248;2023-03-15T12:19:00;100120.03;;;5.81;100.00
43707;BME280;61348;53.392;-6.248;2023-03-15T12:21:38;100125.38;;;5.86;100.00
43707;BME280;61348;53.392;-6.248;2023-03-15T12:24:15;100109.50;;;5.91;100.00
43707;BME280;61348;53.392;-6.248;2023-03-15T12:26:44;100113.53;;;5.94;100.00
43707;BME280;61348;53.392;-6.248;2023-03-15T12:29:15;100106.56;;;5.96;100.00
43707;BME280;61348;53.392;-6.248;2023-03-15T12:31:56;100094.94;;;5.99;100.00
43707;BME280;61348;53.392;-6.248;2023-03-15T12:34:49;100081.34;;;6.03;100.00
43707;BME280;61348;53.392;-6.248;2023-03-15T12:39:52;100070.63;;;6.10;100.00
43707;BME280;61348;53.392;-6.248;2023-03-15T12:53:15;100033.66;;;6.28;100.00
43707;BME280;61348;53.392;-6.248;2023-03-15T12:55:44;100024.75;;;6.31;100.00
43707;BME280;61348;53.392;-6.248;2023-03-15T12:58:16;100028.44;;;6.35;100.00
43707;BME280;61348;53.392;-6.248;2023-03-15T13:00:43;100019.19;;;6.40;100.00
43707;BME280;61348;53.392;-6.248;2023-03-15T13:03:15;100005.09;;;6.41;100.00
43707;BME280;61348;53.392;-6.248;2023-03-15T13:11:22;99997.13;;;6.48;100.00
43707;BME280;61348;53.392;-6.248;2023-03-15T13:16:43;99983.50;;;6.52;100.00
43707;BME280;61348;53.392;-6.248;2023-03-15T13:29:52;99967.38;;;6.62;100.00
43707;BME280;61348;53.392;-6.248;2023-03-15T13:32:21;99954.91;;;6.65;100.00
43707;BME280;61348;53.392;-6.248;2023-03-15T13:34:48;99947.94;;;6.67;100.00
43707;BME280;61348;53.392;-6.248;2023-03-15T13:37:20;99952.09;;;6.73;100.00
43707;BME280;61348;53.392;-6.248;2023-03-15T13:40:07;99945.22;;;6.80;100.00
43707;BME280;61348;53.392;-6.248;2023-03-15T13:42:40;99936.75;;;6.85;100.00
43707;BME280;61348;53.392;-6.248;2023-03-15T13:47:34;99929.19;;;6.94;100.00
43707;BME280;61348;53.392;-6.248;2023-03-15T13:50:03;99913.63;;;6.98;100.00
43707;BME280;61348;53.392;-6.248;2023-03-15T13:52:30;99917.78;;;7.04;100.00
43707;BME280;61348;53.392;-6.248;2023-03-15T13:55:00;99902.16;;;7.08;100.00
43707;BME280;61348;53.392;-6.248;2023-03-15T13:57:29;99901.34;;;7.07;100.00
43707;BME280;61348;53.392;-6.248;2023-03-15T14:00:04;99886.81;;;7.07;100.00
43707;BME280;61348;53.392;-6.248;2023-03-15T14:02:44;99878.56;;;7.07;100.00
43707;BME280;61348;53.392;-6.248;2023-03-15T14:05:20;99873.06;;;7.07;100.00
43707;BME280;61348;53.392;-6.248;2023-03-15T14:07:59;99869.16;;;7.08;100.00
43707;BME280;61348;53.392;-6.248;2023-03-15T14:10:36;99875.47;;;7.08;100.00
43707;BME280;61348;53.392;-6.248;2023-03-15T14:13:22;99861.69;;;7.08;100.00
43707;BME280;61348;53.392;-6.248;2023-03-15T14:16:11;99864.09;;;7.10;100.00
43707;BME280;61348;53.392;-6.248;2023-03-15T14:18:43;99863.88;;;7.15;100.00
43707;BME280;61348;53.392;-6.248;2023-03-15T14:21:30;99843.69;;;7.23;100.00
43707;BME280;61348;53.392;-6.248;2023-03-15T14:24:05;99830.84;;;7.27;100.00
43707;BME280;61348;53.392;-6.248;2023-03-15T14:26:33;99832.56;;;7.31;100.00
43707;BME280;61348;53.392;-6.248;2023-03-15T14:29:11;99820.41;;;7.32;100.00
43707;BME280;61348;53.392;-6.248;2023-03-15T14:31:47;99816.16;;;7.35;100.00
43707;BME280;61348;53.392;-6.248;2023-03-15T14:34:23;99813.41;;;7.35;100.00